This demonstration page uses our WeatherBlox Daily Observations layout. Learn more.

41.55636, -103.73856

Hourly Observations for March 20, 2019

Temp ( °F °C ) Dew Point ( °F °C ) Humidity (%) Winds ( mph kmh ) Pressure ( in mb ) Visibility ( mi km ) Precip ( " mm )
12:53 am 00:53 Clear 27 -2.8 24 -4.4 89 89 NW 6 9 30.3 1026 10 16.09344 0 0
1:53 am 01:53 Clear 29 -1.7 25 -3.9 85 85 NNW 3 6 30.3 1026 10 16.09344 0 0
2:53 am 02:53 Clear 27 -2.8 25 -3.9 92 92 NW 8 13 30.3 1026 10 16.09344 0 0
3:53 am 03:53 Clear 27 -2.8 25 -3.9 92 92 WNW 7 11 30.27 1025 10 16.09344 0 0
4:53 am 04:53 Clear 26 -3.3 24 -4.4 92 92 WNW 8 13 30.27 1025 10 16.09344 0 0
5:53 am 05:53 Clear 27 -2.8 24 -4.4 89 89 WNW 12 19 30.27 1025 10 16.09344 0 0
6:53 am 06:53 Clear 27 -2.8 24 -4.4 89 89 WNW 10 17 30.3 1026 10 16.09344 0 0
7:53 am 07:53 Sunny 30 -1.1 25 -3.9 82 82 WNW 14 22 30.3 1026 10 16.09344 0 0
8:53 am 08:53 Sunny 35 1.7 27 -2.8 72 72 WNW 14 22 30.3 1026 10 16.09344 0 0
9:53 am 09:53 Sunny 40 4.4 27 -2.8 60 60 W 13 20 30.3 1026 10 16.09344 0 0
10:53 am 10:53 Sunny 46 7.8 26 -3.3 46 46 WNW 12 19 30.27 1025 10 16.09344 0 0
11:53 am 11:53 Sunny 52 11.1 27 -2.8 38 38 WNW 14 22 30.24 1024 10 16.09344 0 0
12:53 pm 12:53 Sunny 55 12.8 29 -1.7 37 37 W 13 20 30.24 1024 10 16.09344 0 0
1:53 pm 13:53 Sunny 60 15.6 29 -1.7 31 31 WNW 17 28 30.21 1023 10 16.09344 0 0
2:53 pm 14:53 Sunny 61 16.1 29 -1.7 30 30 NNW 15 24 30.18 1022 10 16.09344 0 0
3:53 pm 15:53 Sunny 61 16.1 27 -2.8 27 27 NNW 14 22 30.18 1022 10 16.09344 0 0
4:53 pm 16:53 Sunny 60 15.6 30 -1.1 32 32 N 15 24 30.21 1023 10 16.09344 0 0
5:53 pm 17:53 Sunny 58 14.4 31 -0.6 36 36 NNW 10 17 30.21 1023 10 16.09344 0 0
6:53 pm 18:53 Sunny 50 10 32 0 50 50 NNW 7 11 30.24 1024 10 16.09344 0 0
7:53 pm 19:53 Clear 43 6.1 32 0 65 65 NNW 5 7 30.27 1025 10 16.09344 0 0
8:53 pm 20:53 Clear 40 4.4 31 -0.6 70 70 NNE 10 17 30.27 1025 10 16.09344 0 0
9:53 pm 21:53 Clear 37 2.8 30 -1.1 76 76 Calm 30.27 1025 10 16.09344 0 0
10:53 pm 22:53 Clear 33 0.6 28 -2.2 82 82 W 5 7 30.27 1025 10 16.09344 0 0
11:53 pm 23:53 Clear 32 0 29 -1.7 88 88 N 5 7 30.24 1024 10 16.09344 0 0

Powered by AerisWeather